This is the latest recevied weather packets stored in our database for station/object WC4PEM-6. If no packets are shown the sender has not sent any weather packets the latest 10 day(s).
| Time | Temp. | Humidity | Pressure | Rain* | Wind** | Luminosity | Snow |
|---|---|---|---|---|---|---|---|
| 1777717214 | 20.56° C | 95% | 1009.2 hPa | 0 mm | - | - | - |
| 1777716914 | 20.56° C | 95% | 1009.4 hPa | 0 mm | - | - | - |
| 1777716614 | 20.56° C | 95% | 1009.4 hPa | 0 mm | - | - | - |
| 1777716314 | 20.56° C | 95% | 1009.4 hPa | 0 mm | - | - | - |
| 1777716014 | 20.56° C | 95% | 1009.6 hPa | 0 mm | - | - | - |
| 1777715821 | 20.56° C | 95% | 1009.6 hPa | 0 mm | - | - | - |
| 1777715714 | 20.56° C | 95% | 1009.6 hPa | 0 mm | - | - | - |
| 1777715414 | 20.56° C | 95% | 1009.6 hPa | 0 mm | - | - | - |
| 1777715397 | 20.56° C | 94% | 1009.6 hPa | 0 mm | - | - | - |
| 1777715262 | 20.56° C | 94% | 1009.6 hPa | 0 mm | - | - | - |
| 1777715114 | 20.56° C | 94% | 1009.6 hPa | 0 mm | - | - | - |
| 1777714814 | 20.56° C | 94% | 1009.6 hPa | 0 mm | - | - | - |
| 1777714514 | 20° C | 94% | 1009.7 hPa | 0 mm | - | - | - |
| 1777714214 | 20° C | 94% | 1009.7 hPa | 0 mm | - | - | - |
| 1777713914 | 20° C | 94% | 1009.9 hPa | 0 mm | - | - | - |
| 1777713614 | 20° C | 94% | 1009.9 hPa | 0 mm | - | - | - |
| 1777713314 | 20.56° C | 94% | 1009.9 hPa | 0 mm | - | - | - |
| 1777713014 | 20° C | 94% | 1009.9 hPa | 0 mm | - | - | - |
| 1777712932 | 31.67° C | 47% | 1011.4 hPa | 0 mm | - | - | - |
| 1777712927 | 31.67° C | 47% | 1011.5 hPa | 0 mm | - | - | - |
| 1777712925 | 31.11° C | 49% | 1011.6 hPa | 0 mm | - | - | - |
| 1777712714 | 20° C | 94% | 1010.1 hPa | 0 mm | - | - | - |
| 1777712414 | 20° C | 93% | 1010.1 hPa | 0 mm | - | - | - |
| 1777712114 | 20.56° C | 93% | 1010.1 hPa | 0 mm | - | - | - |
| 1777711814 | 20.56° C | 93% | 1010.2 hPa | 0 mm | - | - | - |
* Rain latest hour (hover to see other rain measurements)
** Current wind speed in m/s (hover to see current wind gust speed)